sensor_id;sensor_type;location;lat;lon;timestamp;P1;durP1;ratioP1;P2;durP2;ratioP2
62058;SDS011;48017;51.064;7.014;2022-12-10T00:00:50;16.95;;;8.90;;
62058;SDS011;48017;51.064;7.014;2022-12-10T00:03:15;19.95;;;9.68;;
62058;SDS011;48017;51.064;7.014;2022-12-10T00:05:40;20.88;;;10.52;;
62058;SDS011;48017;51.064;7.014;2022-12-10T00:08:06;16.63;;;9.25;;
62058;SDS011;48017;51.064;7.014;2022-12-10T00:10:31;21.25;;;10.57;;
62058;SDS011;48017;51.064;7.014;2022-12-10T00:12:56;18.63;;;9.45;;
62058;SDS011;48017;51.064;7.014;2022-12-10T00:15:21;15.00;;;8.10;;
62058;SDS011;48017;51.064;7.014;2022-12-10T00:17:46;16.17;;;9.45;;
62058;SDS011;48017;51.064;7.014;2022-12-10T00:20:12;24.48;;;9.35;;
62058;SDS011;48017;51.064;7.014;2022-12-10T00:22:37;17.95;;;8.27;;
62058;SDS011;48017;51.064;7.014;2022-12-10T00:25:02;20.25;;;8.60;;
62058;SDS011;48017;51.064;7.014;2022-12-10T00:27:28;18.52;;;9.52;;
62058;SDS011;48017;51.064;7.014;2022-12-10T00:29:53;15.77;;;8.73;;
62058;SDS011;48017;51.064;7.014;2022-12-10T00:32:18;15.70;;;8.57;;
62058;SDS011;48017;51.064;7.014;2022-12-10T00:34:43;16.65;;;8.90;;
62058;SDS011;48017;51.064;7.014;2022-12-10T00:37:08;18.10;;;9.13;;
62058;SDS011;48017;51.064;7.014;2022-12-10T00:39:34;18.48;;;9.05;;
62058;SDS011;48017;51.064;7.014;2022-12-10T00:41:59;16.65;;;8.73;;
62058;SDS011;48017;51.064;7.014;2022-12-10T00:44:24;17.50;;;8.60;;
62058;SDS011;48017;51.064;7.014;2022-12-10T00:46:49;18.30;;;9.13;;
62058;SDS011;48017;51.064;7.014;2022-12-10T00:49:14;16.38;;;7.82;;
62058;SDS011;48017;51.064;7.014;2022-12-10T00:51:40;13.52;;;7.40;;
62058;SDS011;48017;51.064;7.014;2022-12-10T00:54:06;17.65;;;7.60;;
62058;SDS011;48017;51.064;7.014;2022-12-10T00:56:32;15.40;;;8.70;;
62058;SDS011;48017;51.064;7.014;2022-12-10T00:58:58;17.58;;;9.48;;
62058;SDS011;48017;51.064;7.014;2022-12-10T01:01:25;16.20;;;8.98;;
62058;SDS011;48017;51.064;7.014;2022-12-10T01:03:52;17.83;;;8.32;;
62058;SDS011;48017;51.064;7.014;2022-12-10T01:08:50;18.63;;;8.90;;
62058;SDS011;48017;51.064;7.014;2022-12-10T01:11:16;14.90;;;8.13;;
62058;SDS011;48017;51.064;7.014;2022-12-10T01:13:42;18.52;;;9.10;;
62058;SDS011;48017;51.064;7.014;2022-12-10T01:16:08;16.23;;;8.25;;
62058;SDS011;48017;51.064;7.014;2022-12-10T01:18:35;18.33;;;9.93;;
62058;SDS011;48017;51.064;7.014;2022-12-10T01:21:04;13.80;;;8.00;;
62058;SDS011;48017;51.064;7.014;2022-12-10T01:23:36;16.88;;;9.50;;
62058;SDS011;48017;51.064;7.014;2022-12-10T01:26:02;15.95;;;8.07;;
62058;SDS011;48017;51.064;7.014;2022-12-10T01:28:29;17.70;;;8.07;;
62058;SDS011;48017;51.064;7.014;2022-12-10T01:30:54;18.98;;;8.13;;
62058;SDS011;48017;51.064;7.014;2022-12-10T01:33:19;17.45;;;8.70;;
62058;SDS011;48017;51.064;7.014;2022-12-10T01:35:44;18.23;;;8.65;;
62058;SDS011;48017;51.064;7.014;2022-12-10T01:38:10;16.17;;;7.97;;
62058;SDS011;48017;51.064;7.014;2022-12-10T01:40:38;19.30;;;9.52;;
62058;SDS011;48017;51.064;7.014;2022-12-10T01:43:03;15.68;;;7.22;;
62058;SDS011;48017;51.064;7.014;2022-12-10T01:45:28;14.30;;;8.43;;
62058;SDS011;48017;51.064;7.014;2022-12-10T01:47:54;16.60;;;8.63;;
62058;SDS011;48017;51.064;7.014;2022-12-10T01:50:19;13.68;;;7.90;;
62058;SDS011;48017;51.064;7.014;2022-12-10T01:52:44;18.73;;;8.15;;
62058;SDS011;48017;51.064;7.014;2022-12-10T01:55:37;19.65;;;9.75;;
62058;SDS011;48017;51.064;7.014;2022-12-10T01:57:55;17.17;;;8.50;;
62058;SDS011;48017;51.064;7.014;2022-12-10T02:00:20;15.52;;;7.80;;
62058;SDS011;48017;51.064;7.014;2022-12-10T02:03:29;13.55;;;8.00;;
62058;SDS011;48017;51.064;7.014;2022-12-10T02:15:47;17.40;;;9.20;;
62058;SDS011;48017;51.064;7.014;2022-12-10T02:18:31;17.35;;;8.35;;
62058;SDS011;48017;51.064;7.014;2022-12-10T02:20:58;39.10;;;20.23;;
62058;SDS011;48017;51.064;7.014;2022-12-10T02:30:41;16.42;;;8.73;;
62058;SDS011;48017;51.064;7.014;2022-12-10T02:33:07;15.18;;;7.55;;
62058;SDS011;48017;51.064;7.014;2022-12-10T02:35:33;12.30;;;6.53;;
62058;SDS011;48017;51.064;7.014;2022-12-10T02:38:07;17.48;;;9.05;;
62058;SDS011;48017;51.064;7.014;2022-12-10T02:40:33;13.85;;;8.45;;
62058;SDS011;48017;51.064;7.014;2022-12-10T02:42:59;14.82;;;8.05;;
62058;SDS011;48017;51.064;7.014;2022-12-10T02:45:26;15.40;;;7.90;;
62058;SDS011;48017;51.064;7.014;2022-12-10T02:47:53;16.58;;;8.20;;
62058;SDS011;48017;51.064;7.014;2022-12-10T02:50:19;16.27;;;9.33;;
62058;SDS011;48017;51.064;7.014;2022-12-10T02:52:46;19.45;;;8.90;;
62058;SDS011;48017;51.064;7.014;2022-12-10T02:55:12;19.10;;;8.57;;
62058;SDS011;48017;51.064;7.014;2022-12-10T03:00:21;19.55;;;8.90;;
62058;SDS011;48017;51.064;7.014;2022-12-10T03:08:02;17.35;;;8.25;;
62058;SDS011;48017;51.064;7.014;2022-12-10T03:12:58;17.73;;;9.05;;
62058;SDS011;48017;51.064;7.014;2022-12-10T03:15:24;13.75;;;7.50;;
62058;SDS011;48017;51.064;7.014;2022-12-10T03:17:50;14.60;;;8.10;;
62058;SDS011;48017;51.064;7.014;2022-12-10T03:20:16;15.38;;;8.45;;
62058;SDS011;48017;51.064;7.014;2022-12-10T03:22:44;15.07;;;8.70;;
62058;SDS011;48017;51.064;7.014;2022-12-10T03:25:10;20.70;;;9.57;;
62058;SDS011;48017;51.064;7.014;2022-12-10T03:27:37;20.85;;;9.10;;
62058;SDS011;48017;51.064;7.014;2022-12-10T03:30:03;17.65;;;9.05;;
62058;SDS011;48017;51.064;7.014;2022-12-10T03:32:29;17.52;;;9.05;;
62058;SDS011;48017;51.064;7.014;2022-12-10T03:34:55;22.35;;;9.30;;
62058;SDS011;48017;51.064;7.014;2022-12-10T03:37:22;17.55;;;8.73;;
62058;SDS011;48017;51.064;7.014;2022-12-10T03:39:48;14.23;;;7.88;;
62058;SDS011;48017;51.064;7.014;2022-12-10T03:42:13;19.17;;;9.40;;
62058;SDS011;48017;51.064;7.014;2022-12-10T03:44:39;21.52;;;10.18;;
62058;SDS011;48017;51.064;7.014;2022-12-10T03:47:06;17.15;;;8.63;;
62058;SDS011;48017;51.064;7.014;2022-12-10T03:49:33;18.70;;;9.13;;
62058;SDS011;48017;51.064;7.014;2022-12-10T03:51:58;21.90;;;9.10;;
62058;SDS011;48017;51.064;7.014;2022-12-10T03:54:23;14.40;;;8.68;;
62058;SDS011;48017;51.064;7.014;2022-12-10T03:56:49;15.35;;;8.23;;
62058;SDS011;48017;51.064;7.014;2022-12-10T03:59:14;14.82;;;7.97;;
62058;SDS011;48017;51.064;7.014;2022-12-10T04:01:39;15.98;;;9.00;;
62058;SDS011;48017;51.064;7.014;2022-12-10T04:04:05;15.80;;;8.68;;
62058;SDS011;48017;51.064;7.014;2022-12-10T04:06:30;14.95;;;8.32;;
62058;SDS011;48017;51.064;7.014;2022-12-10T04:08:56;15.35;;;8.15;;
62058;SDS011;48017;51.064;7.014;2022-12-10T04:11:21;18.98;;;8.73;;
62058;SDS011;48017;51.064;7.014;2022-12-10T04:13:46;19.48;;;9.80;;
62058;SDS011;48017;51.064;7.014;2022-12-10T04:16:31;23.35;;;10.02;;
62058;SDS011;48017;51.064;7.014;2022-12-10T04:19:01;14.68;;;7.15;;
62058;SDS011;48017;51.064;7.014;2022-12-10T04:21:27;16.63;;;9.38;;
62058;SDS011;48017;51.064;7.014;2022-12-10T04:24:12;17.88;;;9.60;;
62058;SDS011;48017;51.064;7.014;2022-12-10T04:26:56;15.93;;;8.75;;
62058;SDS011;48017;51.064;7.014;2022-12-10T04:29:23;18.88;;;9.88;;
62058;SDS011;48017;51.064;7.014;2022-12-10T04:31:48;28.10;;;10.93;;
62058;SDS011;48017;51.064;7.014;2022-12-10T04:34:14;21.00;;;10.50;;
62058;SDS011;48017;51.064;7.014;2022-12-10T04:36:39;18.48;;;9.30;;
62058;SDS011;48017;51.064;7.014;2022-12-10T04:39:04;20.88;;;8.70;;
62058;SDS011;48017;51.064;7.014;2022-12-10T04:41:29;15.10;;;9.02;;
62058;SDS011;48017;51.064;7.014;2022-12-10T04:43:55;15.48;;;8.65;;
62058;SDS011;48017;51.064;7.014;2022-12-10T04:46:20;19.65;;;8.50;;
62058;SDS011;48017;51.064;7.014;2022-12-10T04:48:45;15.75;;;8.23;;
62058;SDS011;48017;51.064;7.014;2022-12-10T04:51:10;15.32;;;8.63;;
62058;SDS011;48017;51.064;7.014;2022-12-10T04:53:36;17.48;;;8.48;;
62058;SDS011;48017;51.064;7.014;2022-12-10T04:56:01;17.90;;;9.60;;
62058;SDS011;48017;51.064;7.014;2022-12-10T04:58:26;15.82;;;8.65;;
62058;SDS011;48017;51.064;7.014;2022-12-10T05:01:00;17.30;;;8.73;;
62058;SDS011;48017;51.064;7.014;2022-12-10T05:03:25;16.33;;;8.90;;
62058;SDS011;48017;51.064;7.014;2022-12-10T05:05:50;17.80;;;9.32;;
62058;SDS011;48017;51.064;7.014;2022-12-10T05:08:16;20.88;;;9.38;;
62058;SDS011;48017;51.064;7.014;2022-12-10T05:10:41;17.25;;;8.68;;
62058;SDS011;48017;51.064;7.014;2022-12-10T05:13:06;20.33;;;9.27;;
62058;SDS011;48017;51.064;7.014;2022-12-10T05:15:31;16.17;;;9.07;;
62058;SDS011;48017;51.064;7.014;2022-12-10T05:17:56;16.67;;;9.60;;
62058;SDS011;48017;51.064;7.014;2022-12-10T05:20:22;18.27;;;8.82;;
62058;SDS011;48017;51.064;7.014;2022-12-10T05:22:47;18.10;;;9.88;;
62058;SDS011;48017;51.064;7.014;2022-12-10T05:25:31;15.38;;;8.40;;
62058;SDS011;48017;51.064;7.014;2022-12-10T05:27:56;20.77;;;10.82;;
62058;SDS011;48017;51.064;7.014;2022-12-10T05:30:21;16.67;;;8.80;;
62058;SDS011;48017;51.064;7.014;2022-12-10T05:32:46;20.65;;;9.82;;
62058;SDS011;48017;51.064;7.014;2022-12-10T05:35:11;19.67;;;10.63;;
62058;SDS011;48017;51.064;7.014;2022-12-10T05:37:37;23.45;;;9.73;;
62058;SDS011;48017;51.064;7.014;2022-12-10T05:40:02;21.50;;;10.35;;
62058;SDS011;48017;51.064;7.014;2022-12-10T05:42:28;17.20;;;8.55;;
62058;SDS011;48017;51.064;7.014;2022-12-10T05:44:53;18.05;;;9.18;;
62058;SDS011;48017;51.064;7.014;2022-12-10T05:47:18;22.55;;;10.85;;
62058;SDS011;48017;51.064;7.014;2022-12-10T05:49:43;16.00;;;9.25;;
62058;SDS011;48017;51.064;7.014;2022-12-10T05:52:09;20.98;;;9.55;;
62058;SDS011;48017;51.064;7.014;2022-12-10T05:54:34;19.35;;;8.77;;
62058;SDS011;48017;51.064;7.014;2022-12-10T05:56:59;16.65;;;9.20;;
62058;SDS011;48017;51.064;7.014;2022-12-10T05:59:24;16.92;;;8.32;;
62058;SDS011;48017;51.064;7.014;2022-12-10T06:01:50;18.25;;;9.40;;
62058;SDS011;48017;51.064;7.014;2022-12-10T06:04:15;22.20;;;10.15;;
62058;SDS011;48017;51.064;7.014;2022-12-10T06:06:40;18.95;;;9.68;;
62058;SDS011;48017;51.064;7.014;2022-12-10T06:09:06;16.77;;;9.27;;
62058;SDS011;48017;51.064;7.014;2022-12-10T06:11:32;20.08;;;10.13;;
62058;SDS011;48017;51.064;7.014;2022-12-10T06:13:57;22.30;;;10.10;;
62058;SDS011;48017;51.064;7.014;2022-12-10T06:16:24;18.63;;;10.20;;
62058;SDS011;48017;51.064;7.014;2022-12-10T06:18:49;26.02;;;10.13;;
62058;SDS011;48017;51.064;7.014;2022-12-10T06:21:15;17.77;;;9.23;;
62058;SDS011;48017;51.064;7.014;2022-12-10T06:23:41;17.83;;;9.80;;
62058;SDS011;48017;51.064;7.014;2022-12-10T06:26:14;17.65;;;9.57;;
62058;SDS011;48017;51.064;7.014;2022-12-10T06:28:40;22.48;;;9.90;;
62058;SDS011;48017;51.064;7.014;2022-12-10T06:31:05;20.52;;;9.70;;
62058;SDS011;48017;51.064;7.014;2022-12-10T06:33:30;17.95;;;9.57;;
62058;SDS011;48017;51.064;7.014;2022-12-10T06:35:56;20.42;;;10.75;;
62058;SDS011;48017;51.064;7.014;2022-12-10T06:38:21;23.58;;;10.90;;
62058;SDS011;48017;51.064;7.014;2022-12-10T06:40:46;19.52;;;9.77;;
62058;SDS011;48017;51.064;7.014;2022-12-10T06:43:12;21.45;;;9.98;;
62058;SDS011;48017;51.064;7.014;2022-12-10T06:45:40;18.60;;;9.98;;
62058;SDS011;48017;51.064;7.014;2022-12-10T06:48:05;17.67;;;8.98;;
62058;SDS011;48017;51.064;7.014;2022-12-10T06:50:31;24.63;;;12.52;;
62058;SDS011;48017;51.064;7.014;2022-12-10T06:52:56;20.65;;;9.85;;
62058;SDS011;48017;51.064;7.014;2022-12-10T06:55:21;19.17;;;9.45;;
62058;SDS011;48017;51.064;7.014;2022-12-10T06:57:47;18.52;;;8.27;;
62058;SDS011;48017;51.064;7.014;2022-12-10T07:02:40;15.02;;;9.60;;
62058;SDS011;48017;51.064;7.014;2022-12-10T07:05:05;16.80;;;8.88;;
62058;SDS011;48017;51.064;7.014;2022-12-10T07:07:30;23.38;;;10.45;;
62058;SDS011;48017;51.064;7.014;2022-12-10T07:09:56;19.77;;;9.02;;
62058;SDS011;48017;51.064;7.014;2022-12-10T07:12:21;18.52;;;9.77;;
62058;SDS011;48017;51.064;7.014;2022-12-10T07:14:46;19.35;;;9.75;;
62058;SDS011;48017;51.064;7.014;2022-12-10T07:17:11;20.67;;;9.77;;
62058;SDS011;48017;51.064;7.014;2022-12-10T07:19:36;19.83;;;9.75;;
62058;SDS011;48017;51.064;7.014;2022-12-10T07:22:02;21.42;;;10.05;;
62058;SDS011;48017;51.064;7.014;2022-12-10T07:24:27;18.23;;;9.35;;
62058;SDS011;48017;51.064;7.014;2022-12-10T07:26:52;20.05;;;10.15;;
62058;SDS011;48017;51.064;7.014;2022-12-10T07:29:19;21.10;;;9.65;;
62058;SDS011;48017;51.064;7.014;2022-12-10T07:31:44;21.48;;;10.13;;
62058;SDS011;48017;51.064;7.014;2022-12-10T07:34:10;19.35;;;9.73;;
62058;SDS011;48017;51.064;7.014;2022-12-10T07:36:35;17.08;;;9.48;;
62058;SDS011;48017;51.064;7.014;2022-12-10T07:39:01;16.92;;;8.93;;
62058;SDS011;48017;51.064;7.014;2022-12-10T07:41:26;19.60;;;10.85;;
62058;SDS011;48017;51.064;7.014;2022-12-10T07:43:52;19.85;;;9.27;;
62058;SDS011;48017;51.064;7.014;2022-12-10T07:46:18;19.30;;;9.85;;
62058;SDS011;48017;51.064;7.014;2022-12-10T07:48:44;21.10;;;10.13;;
62058;SDS011;48017;51.064;7.014;2022-12-10T07:51:10;20.05;;;9.85;;
62058;SDS011;48017;51.064;7.014;2022-12-10T07:53:36;16.23;;;9.75;;
62058;SDS011;48017;51.064;7.014;2022-12-10T07:56:01;18.45;;;9.07;;
62058;SDS011;48017;51.064;7.014;2022-12-10T07:58:26;19.83;;;9.38;;
62058;SDS011;48017;51.064;7.014;2022-12-10T08:00:52;20.10;;;9.48;;
62058;SDS011;48017;51.064;7.014;2022-12-10T08:03:17;16.75;;;9.95;;
62058;SDS011;48017;51.064;7.014;2022-12-10T08:05:42;27.05;;;10.57;;
62058;SDS011;48017;51.064;7.014;2022-12-10T08:08:07;22.15;;;11.25;;
62058;SDS011;48017;51.064;7.014;2022-12-10T08:10:33;18.63;;;9.50;;
62058;SDS011;48017;51.064;7.014;2022-12-10T08:12:59;22.95;;;11.38;;
62058;SDS011;48017;51.064;7.014;2022-12-10T08:15:24;23.38;;;10.38;;
62058;SDS011;48017;51.064;7.014;2022-12-10T08:17:49;20.80;;;9.95;;
62058;SDS011;48017;51.064;7.014;2022-12-10T08:20:14;23.05;;;11.27;;
62058;SDS011;48017;51.064;7.014;2022-12-10T08:22:40;21.15;;;11.95;;
62058;SDS011;48017;51.064;7.014;2022-12-10T08:25:05;18.33;;;10.23;;
62058;SDS011;48017;51.064;7.014;2022-12-10T08:27:30;21.27;;;10.35;;
62058;SDS011;48017;51.064;7.014;2022-12-10T08:29:55;25.42;;;11.05;;
62058;SDS011;48017;51.064;7.014;2022-12-10T08:32:21;18.35;;;10.75;;
62058;SDS011;48017;51.064;7.014;2022-12-10T08:34:46;18.25;;;9.55;;
62058;SDS011;48017;51.064;7.014;2022-12-10T08:37:11;20.77;;;9.50;;
62058;SDS011;48017;51.064;7.014;2022-12-10T08:39:36;22.63;;;11.98;;
62058;SDS011;48017;51.064;7.014;2022-12-10T08:42:02;22.55;;;11.35;;
62058;SDS011;48017;51.064;7.014;2022-12-10T08:44:27;20.13;;;9.85;;
62058;SDS011;48017;51.064;7.014;2022-12-10T08:46:52;23.85;;;10.88;;
62058;SDS011;48017;51.064;7.014;2022-12-10T08:49:18;20.90;;;11.25;;
62058;SDS011;48017;51.064;7.014;2022-12-10T08:51:43;24.13;;;12.13;;
62058;SDS011;48017;51.064;7.014;2022-12-10T08:54:08;28.30;;;12.70;;
62058;SDS011;48017;51.064;7.014;2022-12-10T08:56:34;26.73;;;12.05;;
62058;SDS011;48017;51.064;7.014;2022-12-10T08:58:59;24.20;;;12.13;;
62058;SDS011;48017;51.064;7.014;2022-12-10T09:01:24;28.00;;;12.73;;
62058;SDS011;48017;51.064;7.014;2022-12-10T09:03:50;31.35;;;13.57;;
62058;SDS011;48017;51.064;7.014;2022-12-10T09:06:16;25.33;;;11.90;;
62058;SDS011;48017;51.064;7.014;2022-12-10T09:08:42;26.40;;;13.10;;
62058;SDS011;48017;51.064;7.014;2022-12-10T09:11:15;27.02;;;12.20;;
62058;SDS011;48017;51.064;7.014;2022-12-10T09:13:40;27.95;;;12.75;;
62058;SDS011;48017;51.064;7.014;2022-12-10T09:16:06;32.90;;;12.30;;
62058;SDS011;48017;51.064;7.014;2022-12-10T09:18:31;26.13;;;13.73;;
62058;SDS011;48017;51.064;7.014;2022-12-10T09:20:56;29.10;;;13.18;;
62058;SDS011;48017;51.064;7.014;2022-12-10T09:23:22;24.77;;;13.20;;
62058;SDS011;48017;51.064;7.014;2022-12-10T09:25:47;23.80;;;11.57;;
62058;SDS011;48017;51.064;7.014;2022-12-10T09:28:12;28.23;;;13.07;;
62058;SDS011;48017;51.064;7.014;2022-12-10T09:30:38;32.85;;;15.55;;
62058;SDS011;48017;51.064;7.014;2022-12-10T09:33:03;35.85;;;15.35;;
62058;SDS011;48017;51.064;7.014;2022-12-10T09:35:29;27.25;;;14.43;;
62058;SDS011;48017;51.064;7.014;2022-12-10T09:37:54;27.98;;;14.10;;
62058;SDS011;48017;51.064;7.014;2022-12-10T09:40:23;35.53;;;15.02;;
62058;SDS011;48017;51.064;7.014;2022-12-10T09:42:52;33.17;;;13.75;;
62058;SDS011;48017;51.064;7.014;2022-12-10T09:45:31;31.25;;;14.45;;
62058;SDS011;48017;51.064;7.014;2022-12-10T09:48:01;34.53;;;14.50;;
62058;SDS011;48017;51.064;7.014;2022-12-10T09:50:34;33.55;;;14.63;;
62058;SDS011;48017;51.064;7.014;2022-12-10T09:53:01;39.92;;;15.57;;
62058;SDS011;48017;51.064;7.014;2022-12-10T09:55:37;25.70;;;15.05;;
62058;SDS011;48017;51.064;7.014;2022-12-10T09:58:04;35.47;;;14.55;;
62058;SDS011;48017;51.064;7.014;2022-12-10T10:00:37;40.33;;;17.80;;
62058;SDS011;48017;51.064;7.014;2022-12-10T10:03:03;44.40;;;17.40;;
62058;SDS011;48017;51.064;7.014;2022-12-10T10:05:39;36.83;;;16.00;;
62058;SDS011;48017;51.064;7.014;2022-12-10T10:08:06;31.58;;;15.52;;
62058;SDS011;48017;51.064;7.014;2022-12-10T10:10:37;32.97;;;15.50;;
62058;SDS011;48017;51.064;7.014;2022-12-10T10:15:32;31.73;;;15.65;;
62058;SDS011;48017;51.064;7.014;2022-12-10T10:18:21;36.55;;;16.45;;
62058;SDS011;48017;51.064;7.014;2022-12-10T10:20:43;32.38;;;14.27;;
62058;SDS011;48017;51.064;7.014;2022-12-10T10:23:08;33.97;;;14.63;;
62058;SDS011;48017;51.064;7.014;2022-12-10T10:25:37;37.85;;;15.80;;
62058;SDS011;48017;51.064;7.014;2022-12-10T10:28:03;32.95;;;14.75;;
62058;SDS011;48017;51.064;7.014;2022-12-10T10:30:28;33.83;;;15.77;;
62058;SDS011;48017;51.064;7.014;2022-12-10T10:32:55;31.92;;;14.57;;
62058;SDS011;48017;51.064;7.014;2022-12-10T10:35:25;33.63;;;15.93;;
62058;SDS011;48017;51.064;7.014;2022-12-10T10:37:52;38.03;;;16.08;;
62058;SDS011;48017;51.064;7.014;2022-12-10T10:40:22;37.33;;;15.90;;
62058;SDS011;48017;51.064;7.014;2022-12-10T10:42:48;36.60;;;15.83;;
62058;SDS011;48017;51.064;7.014;2022-12-10T10:48:08;32.55;;;15.68;;
62058;SDS011;48017;51.064;7.014;2022-12-10T10:50:36;35.70;;;16.08;;
62058;SDS011;48017;51.064;7.014;2022-12-10T10:53:08;37.42;;;14.70;;
62058;SDS011;48017;51.064;7.014;2022-12-10T10:55:44;34.75;;;14.48;;
62058;SDS011;48017;51.064;7.014;2022-12-10T10:58:16;28.35;;;14.02;;
62058;SDS011;48017;51.064;7.014;2022-12-10T11:00:42;33.38;;;15.38;;
62058;SDS011;48017;51.064;7.014;2022-12-10T11:03:17;31.60;;;14.02;;
62058;SDS011;48017;51.064;7.014;2022-12-10T11:05:42;40.70;;;16.63;;
62058;SDS011;48017;51.064;7.014;2022-12-10T11:08:18;45.33;;;16.42;;
62058;SDS011;48017;51.064;7.014;2022-12-10T11:10:48;30.98;;;16.45;;
62058;SDS011;48017;51.064;7.014;2022-12-10T11:15:45;32.60;;;14.60;;
62058;SDS011;48017;51.064;7.014;2022-12-10T11:23:40;35.53;;;15.45;;
62058;SDS011;48017;51.064;7.014;2022-12-10T11:33:49;37.53;;;15.93;;
62058;SDS011;48017;51.064;7.014;2022-12-10T11:39:08;35.50;;;14.75;;
62058;SDS011;48017;51.064;7.014;2022-12-10T11:49:31;33.55;;;14.73;;
62058;SDS011;48017;51.064;7.014;2022-12-10T12:10:18;21.20;;;9.43;;
62058;SDS011;48017;51.064;7.014;2022-12-10T12:12:56;17.23;;;9.02;;
62058;SDS011;48017;51.064;7.014;2022-12-10T12:15:23;15.20;;;7.32;;
62058;SDS011;48017;51.064;7.014;2022-12-10T12:20:32;12.73;;;6.68;;
62058;SDS011;48017;51.064;7.014;2022-12-10T12:23:21;12.38;;;6.50;;
62058;SDS011;48017;51.064;7.014;2022-12-10T12:25:46;16.15;;;6.45;;
62058;SDS011;48017;51.064;7.014;2022-12-10T12:28:14;15.25;;;9.20;;
62058;SDS011;48017;51.064;7.014;2022-12-10T12:30:41;17.67;;;9.68;;
62058;SDS011;48017;51.064;7.014;2022-12-10T12:33:13;22.58;;;10.52;;
62058;SDS011;48017;51.064;7.014;2022-12-10T12:35:42;28.60;;;10.25;;
62058;SDS011;48017;51.064;7.014;2022-12-10T12:40:40;28.00;;;13.02;;
62058;SDS011;48017;51.064;7.014;2022-12-10T12:43:14;25.33;;;12.67;;
62058;SDS011;48017;51.064;7.014;2022-12-10T12:45:42;26.63;;;12.13;;
62058;SDS011;48017;51.064;7.014;2022-12-10T12:48:16;25.98;;;11.75;;
62058;SDS011;48017;51.064;7.014;2022-12-10T12:50:55;21.45;;;9.50;;
62058;SDS011;48017;51.064;7.014;2022-12-10T12:53:23;21.85;;;10.13;;
62058;SDS011;48017;51.064;7.014;2022-12-10T12:58:22;22.67;;;11.48;;
62058;SDS011;48017;51.064;7.014;2022-12-10T13:00:50;21.88;;;9.75;;
62058;SDS011;48017;51.064;7.014;2022-12-10T13:03:18;19.02;;;9.38;;
62058;SDS011;48017;51.064;7.014;2022-12-10T13:05:45;24.67;;;11.32;;
62058;SDS011;48017;51.064;7.014;2022-12-10T13:10:48;23.83;;;11.52;;
62058;SDS011;48017;51.064;7.014;2022-12-10T13:13:37;25.55;;;12.57;;
62058;SDS011;48017;51.064;7.014;2022-12-10T13:18:44;18.98;;;10.75;;
62058;SDS011;48017;51.064;7.014;2022-12-10T13:21:24;29.17;;;11.63;;
62058;SDS011;48017;51.064;7.014;2022-12-10T13:23:51;16.35;;;8.38;;
62058;SDS011;48017;51.064;7.014;2022-12-10T13:26:29;20.40;;;9.18;;
62058;SDS011;48017;51.064;7.014;2022-12-10T13:31:22;19.65;;;9.18;;
62058;SDS011;48017;51.064;7.014;2022-12-10T13:41:34;21.92;;;9.88;;
62058;SDS011;48017;51.064;7.014;2022-12-10T13:49:43;25.13;;;11.07;;
62058;SDS011;48017;51.064;7.014;2022-12-10T13:52:16;19.83;;;10.23;;
62058;SDS011;48017;51.064;7.014;2022-12-10T13:54:49;23.08;;;11.20;;
62058;SDS011;48017;51.064;7.014;2022-12-10T13:57:25;26.23;;;11.10;;
62058;SDS011;48017;51.064;7.014;2022-12-10T14:05:14;21.92;;;11.75;;
62058;SDS011;48017;51.064;7.014;2022-12-10T14:07:47;17.52;;;10.15;;
62058;SDS011;48017;51.064;7.014;2022-12-10T14:10:15;20.58;;;9.43;;
62058;SDS011;48017;51.064;7.014;2022-12-10T14:12:41;23.17;;;9.90;;
62058;SDS011;48017;51.064;7.014;2022-12-10T14:15:08;19.63;;;10.65;;
62058;SDS011;48017;51.064;7.014;2022-12-10T14:17:40;20.63;;;11.10;;
62058;SDS011;48017;51.064;7.014;2022-12-10T14:20:07;24.60;;;11.02;;
62058;SDS011;48017;51.064;7.014;2022-12-10T14:22:34;19.23;;;9.63;;
62058;SDS011;48017;51.064;7.014;2022-12-10T14:25:00;25.08;;;12.07;;
62058;SDS011;48017;51.064;7.014;2022-12-10T14:27:26;20.77;;;10.32;;
62058;SDS011;48017;51.064;7.014;2022-12-10T14:29:53;31.17;;;10.82;;
62058;SDS011;48017;51.064;7.014;2022-12-10T14:32:29;24.58;;;10.93;;
62058;SDS011;48017;51.064;7.014;2022-12-10T14:34:57;22.20;;;10.15;;
62058;SDS011;48017;51.064;7.014;2022-12-10T14:37:33;25.77;;;11.93;;
62058;SDS011;48017;51.064;7.014;2022-12-10T14:39:59;24.10;;;12.43;;
62058;SDS011;48017;51.064;7.014;2022-12-10T14:42:25;22.42;;;11.05;;
62058;SDS011;48017;51.064;7.014;2022-12-10T14:44:57;21.98;;;11.10;;
62058;SDS011;48017;51.064;7.014;2022-12-10T14:47:24;20.73;;;10.35;;
62058;SDS011;48017;51.064;7.014;2022-12-10T14:49:50;22.98;;;10.13;;
62058;SDS011;48017;51.064;7.014;2022-12-10T14:52:18;14.75;;;8.68;;
62058;SDS011;48017;51.064;7.014;2022-12-10T14:54:44;22.73;;;11.43;;
62058;SDS011;48017;51.064;7.014;2022-12-10T14:57:13;25.13;;;10.63;;
62058;SDS011;48017;51.064;7.014;2022-12-10T14:59:43;21.92;;;11.38;;
62058;SDS011;48017;51.064;7.014;2022-12-10T15:02:12;22.67;;;12.63;;
62058;SDS011;48017;51.064;7.014;2022-12-10T15:04:41;30.42;;;13.75;;
62058;SDS011;48017;51.064;7.014;2022-12-10T15:07:17;34.97;;;12.77;;
62058;SDS011;48017;51.064;7.014;2022-12-10T15:09:43;25.15;;;10.18;;
62058;SDS011;48017;51.064;7.014;2022-12-10T15:12:17;27.50;;;13.13;;
62058;SDS011;48017;51.064;7.014;2022-12-10T15:14:44;22.77;;;11.40;;
62058;SDS011;48017;51.064;7.014;2022-12-10T15:19:53;27.60;;;12.75;;
62058;SDS011;48017;51.064;7.014;2022-12-10T15:22:19;27.48;;;11.02;;
62058;SDS011;48017;51.064;7.014;2022-12-10T15:24:45;26.50;;;12.25;;
62058;SDS011;48017;51.064;7.014;2022-12-10T15:27:17;24.83;;;10.35;;
62058;SDS011;48017;51.064;7.014;2022-12-10T15:29:43;24.95;;;12.43;;
62058;SDS011;48017;51.064;7.014;2022-12-10T15:32:13;21.25;;;10.45;;
62058;SDS011;48017;51.064;7.014;2022-12-10T15:34:49;27.58;;;11.60;;
62058;SDS011;48017;51.064;7.014;2022-12-10T15:37:21;26.58;;;11.70;;
62058;SDS011;48017;51.064;7.014;2022-12-10T15:39:57;24.48;;;11.32;;
62058;SDS011;48017;51.064;7.014;2022-12-10T15:42:27;22.35;;;11.55;;
62058;SDS011;48017;51.064;7.014;2022-12-10T15:44:54;21.02;;;10.45;;
62058;SDS011;48017;51.064;7.014;2022-12-10T15:47:21;26.77;;;12.23;;
62058;SDS011;48017;51.064;7.014;2022-12-10T15:49:47;19.77;;;10.50;;
62058;SDS011;48017;51.064;7.014;2022-12-10T15:52:13;27.50;;;11.60;;
62058;SDS011;48017;51.064;7.014;2022-12-10T15:54:40;23.23;;;11.93;;
62058;SDS011;48017;51.064;7.014;2022-12-10T15:59:38;31.15;;;14.00;;
62058;SDS011;48017;51.064;7.014;2022-12-10T16:02:03;27.65;;;12.98;;
62058;SDS011;48017;51.064;7.014;2022-12-10T16:04:33;26.90;;;13.80;;
62058;SDS011;48017;51.064;7.014;2022-12-10T16:06:59;32.00;;;14.70;;
62058;SDS011;48017;51.064;7.014;2022-12-10T16:09:24;34.45;;;14.68;;
62058;SDS011;48017;51.064;7.014;2022-12-10T16:11:49;33.15;;;14.35;;
62058;SDS011;48017;51.064;7.014;2022-12-10T16:14:14;29.83;;;12.63;;
62058;SDS011;48017;51.064;7.014;2022-12-10T16:16:40;28.38;;;13.27;;
62058;SDS011;48017;51.064;7.014;2022-12-10T16:19:12;32.80;;;13.30;;
62058;SDS011;48017;51.064;7.014;2022-12-10T16:21:38;30.35;;;12.90;;
62058;SDS011;48017;51.064;7.014;2022-12-10T16:24:03;35.25;;;16.05;;
62058;SDS011;48017;51.064;7.014;2022-12-10T16:26:28;30.40;;;12.63;;
62058;SDS011;48017;51.064;7.014;2022-12-10T16:28:53;22.88;;;12.70;;
62058;SDS011;48017;51.064;7.014;2022-12-10T16:31:20;28.17;;;13.05;;